Time;durP1;ratioP1;P1;durP2;ratioP2;P2;SDS_P1;SDS_P2;PMS_P1;PMS_P2;Temp;Humidity;BMP_temperature;BMP_pressure;BME280_temperature;BME280_humidity;BME280_pressure;Samples;Min_cycle;Max_cycle;Signal;HPM_P1;HPM_P2
2021/03/20 00:01:24;;;;;;;11.90;6.10;;;4.10;91.70;;;;;;5074024;28;20032;-76
2021/03/20 00:03:50;;;;;;;9.07;5.22;;;4.10;91.70;;;;;;5073587;28;20025;-76
2021/03/20 00:06:20;;;;;;;12.93;6.32;;;4.10;91.20;;;;;;5073103;28;20042;-77
2021/03/20 00:08:48;;;;;;;9.80;4.60;;;4.10;90.50;;;;;;5074774;28;20102;-76
2021/03/20 00:11:15;;;;;;;8.88;4.28;;;4.10;90.50;;;;;;5055510;28;20013;-77
2021/03/20 00:13:42;;;;;;;11.52;5.22;;;4.20;91.10;;;;;;5073225;28;20064;-77
2021/03/20 00:16:07;;;;;;;13.40;6.63;;;4.20;90.60;;;;;;5073620;28;20065;-78
2021/03/20 00:18:33;;;;;;;11.65;6.10;;;4.10;90.60;;;;;;5055901;28;20482;-77
2021/03/20 00:20:59;;;;;;;10.90;6.28;;;4.10;88.70;;;;;;5073138;28;20229;-77
2021/03/20 00:23:25;;;;;;;10.93;6.25;;;4.10;88.20;;;;;;5055038;28;20060;-77
2021/03/20 00:25:51;;;;;;;11.63;6.35;;;4.00;86.50;;;;;;5088773;28;20444;-77
2021/03/20 00:28:21;;;;;;;10.88;6.68;;;4.00;86.30;;;;;;5088402;28;20031;-77
2021/03/20 00:31:09;;;;;;;9.15;5.90;;;4.00;87.10;;;;;;5055074;28;20402;-78
2021/03/20 00:33:35;;;;;;;11.00;5.57;;;4.10;87.10;;;;;;5052816;28;20111;-77
2021/03/20 00:36:01;;;;;;;12.25;6.53;;;4.10;87.40;;;;;;5054896;28;20030;-77
2021/03/20 00:38:28;;;;;;;6.68;3.63;;;4.10;88.50;;;;;;5088091;28;20016;-77
2021/03/20 00:40:56;;;;;;;9.43;5.88;;;4.20;89.00;;;;;;5054902;28;20389;-78
2021/03/20 00:43:23;;;;;;;8.70;5.28;;;4.20;90.10;;;;;;5072501;28;20114;-77
2021/03/20 00:45:48;;;;;;;11.50;5.97;;;4.20;89.10;;;;;;5072405;28;20531;-77
2021/03/20 00:48:18;;;;;;;12.80;5.88;;;4.20;88.70;;;;;;5072743;28;20049;-78
2021/03/20 00:50:44;;;;;;;8.65;4.82;;;4.20;88.40;;;;;;5072821;28;20078;-78
2021/03/20 00:53:10;;;;;;;7.35;3.92;;;4.20;87.90;;;;;;5054725;28;20063;-78
2021/03/20 00:55:35;;;;;;;10.68;6.13;;;4.20;89.40;;;;;;5072306;28;20479;-77
2021/03/20 00:58:37;;;;;;;10.00;6.00;;;4.10;88.80;;;;;;5072338;28;20021;-77
2021/03/20 01:01:12;;;;;;;11.25;6.28;;;4.10;88.70;;;;;;5054596;28;20028;-77
2021/03/20 01:03:38;;;;;;;11.45;6.20;;;4.10;90.40;;;;;;5072242;28;20092;-77
2021/03/20 01:06:10;;;;;;;12.82;6.35;;;4.10;88.70;;;;;;5054454;28;20024;-77
2021/03/20 01:08:36;;;;;;;10.35;6.07;;;4.00;86.40;;;;;;5053193;28;20075;-77
2021/03/20 01:11:03;;;;;;;10.35;6.05;;;3.90;85.30;;;;;;5054485;28;20028;-77
2021/03/20 01:13:29;;;;;;;13.80;6.93;;;3.90;85.30;;;;;;5054303;28;20412;-78
2021/03/20 01:15:54;;;;;;;13.88;6.15;;;3.80;84.20;;;;;;5088085;28;20020;-76
2021/03/20 01:18:20;;;;;;;8.25;4.82;;;3.70;84.90;;;;;;5054249;28;20025;-76
2021/03/20 01:20:46;;;;;;;11.27;5.45;;;3.60;85.10;;;;;;5072119;28;20017;-77
2021/03/20 01:23:12;;;;;;;8.95;6.03;;;3.60;85.80;;;;;;5087897;28;20017;-76
2021/03/20 01:25:38;;;;;;;9.88;5.72;;;3.50;85.20;;;;;;5087616;28;20016;-77
2021/03/20 01:28:04;;;;;;;10.95;6.30;;;3.50;85.20;;;;;;5087902;28;20020;-77
2021/03/20 01:30:36;;;;;;;11.68;6.70;;;3.40;86.10;;;;;;5071706;28;20013;-78
2021/03/20 01:33:03;;;;;;;10.18;5.32;;;3.40;86.70;;;;;;5053913;28;20105;-77
2021/03/20 01:35:29;;;;;;;8.20;4.35;;;3.40;86.90;;;;;;5053640;28;20012;-77
2021/03/20 01:37:55;;;;;;;9.00;5.65;;;3.40;88.70;;;;;;5071911;28;20111;-77
2021/03/20 01:40:29;;;;;;;11.80;6.55;;;3.40;87.90;;;;;;5072113;28;20107;-77
2021/03/20 01:42:54;;;;;;;10.75;6.38;;;3.30;87.50;;;;;;5071870;28;20025;-77
2021/03/20 01:45:22;;;;;;;12.57;6.82;;;3.30;88.40;;;;;;5054026;28;20021;-77
2021/03/20 01:47:53;;;;;;;9.95;6.80;;;3.20;87.80;;;;;;5071879;28;20021;-77
2021/03/20 01:50:39;;;;;;;9.30;4.20;;;3.20;87.30;;;;;;5071965;28;20453;-77
2021/03/20 01:53:34;;;;;;;9.70;5.03;;;3.20;87.30;;;;;;5072085;28;20143;-77
2021/03/20 01:56:01;;;;;;;11.35;6.28;;;3.20;87.60;;;;;;5035265;28;20047;-77
2021/03/20 01:58:28;;;;;;;11.55;6.00;;;3.20;87.80;;;;;;5071849;28;20391;-76
2021/03/20 02:01:20;;;;;;;11.27;6.35;;;3.20;87.10;;;;;;5072613;28;20025;-76
2021/03/20 02:03:46;;;;;;;9.55;5.88;;;3.10;86.20;;;;;;5053072;28;20111;-76
2021/03/20 02:06:12;;;;;;;10.77;6.65;;;3.10;86.80;;;;;;5053868;28;20107;-75
2021/03/20 02:08:39;;;;;;;10.40;5.90;;;3.10;86.00;;;;;;5053292;28;20037;-78
2021/03/20 02:11:21;;;;;;;9.73;5.50;;;3.00;84.70;;;;;;5054124;28;20552;-78
2021/03/20 02:14:04;;;;;;;8.85;5.07;;;3.00;82.90;;;;;;5072651;28;20079;-78
2021/03/20 02:16:37;;;;;;;10.60;5.85;;;3.00;82.70;;;;;;5078478;28;20028;-78
2021/03/20 02:19:24;;;;;;;10.43;6.10;;;2.90;82.40;;;;;;5058990;28;20471;-78
2021/03/20 02:21:55;;;;;;;12.82;6.13;;;2.90;81.70;;;;;;5075597;28;20020;-78
2021/03/20 02:24:58;;;;;;;10.07;6.00;;;2.80;81.40;;;;;;5057538;28;20112;-78
2021/03/20 02:27:44;;;;;;;10.57;7.38;;;2.80;81.30;;;;;;5075532;28;20129;-78
2021/03/20 02:30:40;;;;;;;8.02;4.75;;;2.70;81.30;;;;;;5075374;28;20103;-78
2021/03/20 02:33:21;;;;;;;9.25;6.38;;;2.70;81.80;;;;;;5057431;28;20406;-77
2021/03/20 02:36:29;;;;;;;11.60;6.78;;;2.60;82.20;;;;;;5057127;28;20021;-78
2021/03/20 02:39:01;;;;;;;9.52;6.35;;;2.60;82.40;;;;;;5066877;28;20012;-77
2021/03/20 02:42:10;;;;;;;12.90;6.22;;;2.60;82.70;;;;;;5076994;28;20024;-78
2021/03/20 02:44:51;;;;;;;10.82;6.57;;;2.60;83.30;;;;;;5073384;28;20036;-78
2021/03/20 02:47:25;;;;;;;7.93;5.40;;;2.50;83.50;;;;;;5095520;28;20052;-76
2021/03/20 02:49:59;;;;;;;10.32;6.30;;;2.60;83.40;;;;;;5076809;28;20483;-77
2021/03/20 02:52:29;;;;;;;11.75;5.95;;;2.50;83.40;;;;;;5095280;28;20024;-77
2021/03/20 02:55:21;;;;;;;9.40;5.90;;;2.50;83.20;;;;;;5094970;28;20039;-77
2021/03/20 02:57:59;;;;;;;10.00;5.68;;;2.50;82.90;;;;;;5094810;28;20026;-77
2021/03/20 03:00:33;;;;;;;9.40;5.50;;;2.50;82.80;;;;;;5076734;28;20417;-77
2021/03/20 03:03:01;;;;;;;10.27;5.65;;;2.50;83.50;;;;;;5076919;28;20024;-78
2021/03/20 03:05:38;;;;;;;11.43;7.50;;;2.40;83.70;;;;;;5076712;28;20021;-78
2021/03/20 03:08:13;;;;;;;10.02;6.68;;;2.50;83.20;;;;;;5095025;28;20122;-77
2021/03/20 03:10:47;;;;;;;14.55;6.55;;;2.50;83.00;;;;;;5076588;28;20016;-76
2021/03/20 03:13:20;;;;;;;12.55;7.30;;;2.50;83.40;;;;;;5095159;28;20031;-78
2021/03/20 03:15:51;;;;;;;11.00;6.55;;;2.50;83.50;;;;;;5094758;28;20024;-77
2021/03/20 03:18:22;;;;;;;12.57;6.30;;;2.50;83.40;;;;;;5076694;28;20027;-76
2021/03/20 03:20:52;;;;;;;11.07;7.15;;;2.50;83.50;;;;;;5094750;28;20024;-78
2021/03/20 03:23:21;;;;;;;12.77;8.43;;;2.40;84.10;;;;;;5076781;28;20060;-77
2021/03/20 03:25:55;;;;;;;11.70;7.93;;;2.40;84.30;;;;;;5076487;28;20047;-77
2021/03/20 03:28:25;;;;;;;11.18;7.78;;;2.40;85.00;;;;;;5094724;28;20471;-77
2021/03/20 03:30:51;;;;;;;11.63;7.10;;;2.40;85.10;;;;;;5093151;28;20035;-78
2021/03/20 03:33:29;;;;;;;11.98;7.25;;;2.40;84.60;;;;;;5094230;28;20091;-78
2021/03/20 03:36:07;;;;;;;10.10;6.28;;;2.40;84.60;;;;;;5094195;28;20368;-78
2021/03/20 03:38:51;;;;;;;13.32;7.55;;;2.40;84.70;;;;;;5075712;28;20096;-78
2021/03/20 03:41:39;;;;;;;10.70;6.38;;;2.40;85.00;;;;;;5076294;28;20054;-78
2021/03/20 03:44:07;;;;;;;11.55;7.13;;;2.40;84.70;;;;;;5075435;28;20119;-77
2021/03/20 03:46:36;;;;;;;11.98;7.03;;;2.30;84.40;;;;;;5094131;28;20024;-78
2021/03/20 03:49:06;;;;;;;11.52;7.15;;;2.30;84.70;;;;;;5094121;28;20024;-77
2021/03/20 03:51:32;;;;;;;11.30;7.03;;;2.30;83.80;;;;;;5093851;28;20099;-79
2021/03/20 03:53:59;;;;;;;10.57;6.43;;;2.20;84.20;;;;;;5094118;28;20106;-78
2021/03/20 03:56:48;;;;;;;12.82;6.80;;;2.20;84.30;;;;;;5093669;28;20038;-78
2021/03/20 03:59:14;;;;;;;11.13;6.10;;;2.20;84.80;;;;;;5044373;28;20032;-78
2021/03/20 04:02:10;;;;;;;13.20;6.35;;;2.20;85.20;;;;;;5075539;28;20436;-79
2021/03/20 04:05:13;;;;;;;10.07;6.65;;;2.20;85.00;;;;;;5093369;28;20028;-79
2021/03/20 04:08:00;;;;;;;10.15;6.93;;;2.20;84.10;;;;;;5093447;28;20048;-77
2021/03/20 04:10:31;;;;;;;10.15;7.15;;;2.20;83.60;;;;;;5093764;28;20020;-78
2021/03/20 04:13:08;;;;;;;14.75;7.82;;;2.10;83.10;;;;;;5093705;28;20020;-77
2021/03/20 04:15:55;;;;;;;11.45;6.68;;;2.10;83.10;;;;;;5093440;28;20129;-77
2021/03/20 04:18:49;;;;;;;11.27;6.78;;;2.00;83.10;;;;;;5093782;28;20016;-78
2021/03/20 04:21:37;;;;;;;12.70;6.32;;;2.00;83.10;;;;;;5093291;28;20095;-77
2021/03/20 04:24:27;;;;;;;9.93;7.15;;;1.90;83.00;;;;;;5075103;28;20020;-78
2021/03/20 04:27:05;;;;;;;11.52;6.80;;;1.90;83.10;;;;;;5093050;28;20027;-78
2021/03/20 04:29:55;;;;;;;14.00;7.07;;;1.90;83.30;;;;;;5075208;28;20050;-78
2021/03/20 04:32:41;;;;;;;13.52;7.72;;;1.80;83.30;;;;;;5075314;28;20028;-78
2021/03/20 04:35:10;;;;;;;12.60;7.90;;;1.80;83.30;;;;;;5074495;28;20099;-78
2021/03/20 04:37:43;;;;;;;10.90;7.05;;;1.80;83.30;;;;;;5074841;28;20020;-79
2021/03/20 04:40:25;;;;;;;15.27;7.45;;;1.70;83.30;;;;;;5074787;28;20020;-77
2021/03/20 04:42:52;;;;;;;11.32;7.30;;;1.70;83.60;;;;;;5072668;28;20028;-76
2021/03/20 04:45:34;;;;;;;12.57;8.15;;;1.70;83.70;;;;;;5072614;28;20104;-77
2021/03/20 04:48:05;;;;;;;10.77;7.57;;;1.70;83.20;;;;;;5073001;28;20095;-77
2021/03/20 04:50:34;;;;;;;12.90;6.68;;;1.70;83.20;;;;;;5054766;28;20020;-77
2021/03/20 04:53:00;;;;;;;11.75;7.00;;;1.70;83.00;;;;;;5074928;28;20099;-77
2021/03/20 04:55:28;;;;;;;12.35;8.18;;;1.70;83.10;;;;;;5075775;28;20027;-77
2021/03/20 04:58:10;;;;;;;12.30;7.22;;;1.60;83.20;;;;;;5056808;28;20035;-78
2021/03/20 05:00:43;;;;;;;12.05;7.20;;;1.60;82.90;;;;;;5072368;28;20024;-77
2021/03/20 05:03:31;;;;;;;15.32;7.22;;;1.60;83.00;;;;;;5054656;28;20514;-77
2021/03/20 05:06:16;;;;;;;11.82;6.75;;;1.60;83.50;;;;;;5054863;28;20309;-76
2021/03/20 05:09:00;;;;;;;11.35;6.72;;;1.60;82.50;;;;;;5075352;28;20059;-77
2021/03/20 05:11:31;;;;;;;11.02;6.25;;;1.60;82.70;;;;;;5055876;28;20016;-76
2021/03/20 05:14:17;;;;;;;10.50;6.63;;;1.50;82.30;;;;;;5072082;28;20467;-78
2021/03/20 05:16:58;;;;;;;13.13;6.63;;;1.50;82.20;;;;;;5072135;28;20048;-77
2021/03/20 05:19:26;;;;;;;14.25;6.75;;;1.50;82.20;;;;;;5054447;28;20022;-77
2021/03/20 05:21:54;;;;;;;11.00;6.72;;;1.50;82.20;;;;;;5054192;28;20017;-78
2021/03/20 05:24:29;;;;;;;11.63;6.95;;;1.50;82.20;;;;;;5054230;28;20023;-78
2021/03/20 05:26:56;;;;;;;10.90;6.50;;;1.50;82.50;;;;;;5072001;28;20020;-78
2021/03/20 05:29:22;;;;;;;11.25;6.40;;;1.50;82.30;;;;;;5053894;28;20058;-78
2021/03/20 05:31:48;;;;;;;10.18;7.03;;;1.50;82.40;;;;;;5053547;28;20028;-77
2021/03/20 05:34:23;;;;;;;10.38;6.50;;;1.50;82.50;;;;;;5054171;28;20028;-79
2021/03/20 05:36:49;;;;;;;12.70;7.18;;;1.50;82.70;;;;;;5054109;28;20017;-78
2021/03/20 05:39:15;;;;;;;14.10;7.40;;;1.50;82.90;;;;;;5054408;28;20346;-78
2021/03/20 05:42:18;;;;;;;12.57;6.85;;;1.50;82.90;;;;;;5053914;28;20029;-78
2021/03/20 05:45:05;;;;;;;13.27;7.32;;;1.50;82.90;;;;;;5087294;28;20012;-78
2021/03/20 05:47:52;;;;;;;11.45;7.28;;;1.40;82.90;;;;;;5074264;28;20012;-77
2021/03/20 05:50:59;;;;;;;12.13;6.85;;;1.40;83.10;;;;;;5074367;28;20483;-78
2021/03/20 05:54:08;;;;;;;13.18;7.70;;;1.40;83.10;;;;;;5079163;28;20528;-78
2021/03/20 05:56:39;;;;;;;11.80;7.43;;;1.40;83.60;;;;;;5047168;28;20028;-79
2021/03/20 05:59:27;;;;;;;15.70;8.25;;;1.40;84.00;;;;;;5078163;28;20028;-79
2021/03/20 06:02:16;;;;;;;11.43;7.25;;;1.40;83.30;;;;;;5096099;28;20055;-78
2021/03/20 06:04:45;;;;;;;13.23;7.40;;;1.50;83.40;;;;;;5077925;28;20012;-77
2021/03/20 06:07:41;;;;;;;13.05;8.45;;;1.50;83.30;;;;;;5077793;28;20019;-78
2021/03/20 06:10:27;;;;;;;12.80;8.07;;;1.50;83.60;;;;;;5098291;28;20032;-79
2021/03/20 06:13:30;;;;;;;13.90;7.88;;;1.50;83.50;;;;;;5078801;28;20016;-78
2021/03/20 06:16:23;;;;;;;9.95;6.70;;;1.60;84.30;;;;;;5078148;28;20391;-77
2021/03/20 06:19:26;;;;;;;13.52;7.80;;;1.70;83.60;;;;;;5096551;28;20016;-78
2021/03/20 06:22:33;;;;;;;11.38;6.85;;;1.80;83.10;;;;;;5077946;28;20115;-77
2021/03/20 06:25:17;;;;;;;11.73;7.38;;;1.90;82.60;;;;;;5047881;28;20024;-78
2021/03/20 06:27:48;;;;;;;11.98;6.80;;;2.10;82.00;;;;;;5078868;28;20606;-75
2021/03/20 06:30:26;;;;;;;11.45;7.00;;;2.20;81.10;;;;;;5096568;28;20461;-77
2021/03/20 06:32:55;;;;;;;10.18;6.53;;;2.30;80.00;;;;;;5078989;28;20040;-75
2021/03/20 06:35:27;;;;;;;10.60;5.93;;;2.40;78.90;;;;;;5096115;28;20095;-77
2021/03/20 06:37:57;;;;;;;10.52;5.10;;;2.50;77.80;;;;;;5078126;28;20035;-78
2021/03/20 06:40:29;;;;;;;6.78;4.55;;;2.60;76.70;;;;;;5077365;28;20024;-77
2021/03/20 06:42:56;;;;;;;11.73;5.40;;;2.80;76.00;;;;;;5076520;28;20024;-77
2021/03/20 06:45:33;;;;;;;9.25;4.47;;;2.90;75.30;;;;;;5057115;28;20021;-77
2021/03/20 06:48:08;;;;;;;12.57;5.70;;;3.10;74.50;;;;;;5074526;28;20360;-77
2021/03/20 06:50:46;;;;;;;11.25;4.75;;;3.20;73.30;;;;;;5056855;28;20336;-78
2021/03/20 06:53:15;;;;;;;8.65;4.45;;;3.30;71.70;;;;;;5074890;28;20111;-77
2021/03/20 06:55:46;;;;;;;7.57;4.00;;;3.50;70.50;;;;;;5056908;28;20017;-78
2021/03/20 06:58:32;;;;;;;10.02;4.13;;;3.60;68.50;;;;;;5074669;28;20062;-78
2021/03/20 07:01:11;;;;;;;6.95;4.20;;;3.70;68.10;;;;;;5062996;28;20104;-77
2021/03/20 07:04:00;;;;;;;9.40;4.20;;;3.80;66.10;;;;;;5056995;28;20020;-77
2021/03/20 07:06:52;;;;;;;5.68;3.20;;;3.90;65.40;;;;;;5055474;28;20258;-75
2021/03/20 07:09:18;;;;;;;8.27;3.70;;;4.00;64.00;;;;;;5074562;28;20060;-77
2021/03/20 07:12:04;;;;;;;6.30;3.63;;;4.10;64.00;;;;;;5074296;28;20071;-77
2021/03/20 07:14:47;;;;;;;9.10;3.95;;;4.20;64.10;;;;;;5074610;28;20013;-76
2021/03/20 07:17:22;;;;;;;6.68;3.80;;;4.30;64.10;;;;;;5074890;28;20043;-76
2021/03/20 07:20:05;;;;;;;5.82;3.05;;;4.40;63.20;;;;;;5056461;28;20020;-76
2021/03/20 07:22:31;;;;;;;6.63;3.50;;;4.60;62.40;;;;;;5056648;28;20515;-78
2021/03/20 07:24:58;;;;;;;10.38;4.38;;;4.70;61.60;;;;;;5057430;28;20024;-78
2021/03/20 07:27:35;;;;;;;7.70;3.65;;;4.80;61.30;;;;;;5074995;28;20024;-76
2021/03/20 07:30:30;;;;;;;7.07;4.20;;;5.00;61.40;;;;;;5058706;28;20157;-78
2021/03/20 07:32:56;;;;;;;7.90;3.97;;;5.10;60.40;;;;;;5048964;28;20024;-77
2021/03/20 07:35:21;;;;;;;6.90;3.10;;;5.30;59.60;;;;;;5074973;28;20127;-78
2021/03/20 07:37:51;;;;;;;6.43;3.25;;;5.50;58.90;;;;;;5057594;28;20024;-78
2021/03/20 07:40:26;;;;;;;7.30;2.90;;;5.60;58.20;;;;;;5057727;28;20094;-78
2021/03/20 07:43:15;;;;;;;7.35;3.25;;;5.80;58.20;;;;;;5056330;28;20028;-77
2021/03/20 07:45:44;;;;;;;6.88;3.42;;;5.90;57.00;;;;;;5058049;28;20055;-76
2021/03/20 07:48:26;;;;;;;7.10;3.17;;;6.00;56.40;;;;;;5074326;28;20009;-77
2021/03/20 07:51:05;;;;;;;9.77;3.92;;;6.10;56.30;;;;;;5058327;28;20025;-78
2021/03/20 07:53:39;;;;;;;6.43;3.72;;;6.20;56.70;;;;;;5056166;28;20043;-79
2021/03/20 07:56:28;;;;;;;9.32;3.10;;;6.40;56.00;;;;;;5056396;28;20044;-78
2021/03/20 07:59:26;;;;;;;9.88;3.45;;;6.50;55.90;;;;;;5074435;28;20031;-77
2021/03/20 08:01:58;;;;;;;9.98;4.20;;;6.60;55.20;;;;;;5060964;28;20031;-79
2021/03/20 08:04:51;;;;;;;7.15;3.67;;;6.60;55.50;;;;;;5059595;28;20575;-79
2021/03/20 08:07:40;;;;;;;9.05;3.10;;;6.90;56.00;;;;;;5073248;28;20440;-79
2021/03/20 08:10:14;;;;;;;6.75;3.72;;;7.10;55.00;;;;;;5073222;28;20050;-78
2021/03/20 08:12:53;;;;;;;9.23;4.43;;;7.30;54.20;;;;;;5055293;28;20020;-77
2021/03/20 08:15:36;;;;;;;7.17;3.40;;;7.50;53.90;;;;;;5073133;28;20100;-78
2021/03/20 08:18:24;;;;;;;9.20;4.00;;;7.60;52.30;;;;;;5054851;28;20021;-77
2021/03/20 08:21:16;;;;;;;8.82;4.03;;;7.70;52.70;;;;;;5054866;28;20046;-78
2021/03/20 08:24:06;;;;;;;9.05;3.95;;;7.70;52.40;;;;;;5034530;28;20101;-78
2021/03/20 08:26:46;;;;;;;5.88;3.58;;;7.80;53.20;;;;;;5054939;28;20024;-78
2021/03/20 08:29:21;;;;;;;;;;;7.90;52.40;;;;;;5073237;28;20013;-78
2021/03/20 08:31:53;;;;;;;9.02;3.95;;;8.10;52.20;;;;;;5054571;28;19908;-80
2021/03/20 08:34:48;;;;;;;6.32;3.38;;;8.30;51.60;;;;;;5055460;28;20023;-80
2021/03/20 08:37:29;;;;;;;6.90;4.43;;;8.40;51.20;;;;;;5055453;28;20021;-81
2021/03/20 08:40:03;;;;;;;7.18;3.63;;;8.40;51.10;;;;;;5073253;28;20025;-81
2021/03/20 08:42:47;;;;;;;7.28;4.15;;;8.20;51.30;;;;;;5073332;28;20025;-80
2021/03/20 08:45:32;;;;;;;6.65;3.90;;;8.20;51.90;;;;;;5054644;28;20033;-81
2021/03/20 08:48:07;;;;;;;6.53;4.03;;;8.10;52.30;;;;;;5072476;28;20024;-81
2021/03/20 08:51:02;;;;;;;7.32;4.05;;;8.20;52.70;;;;;;5072444;28;20029;-81
2021/03/20 08:53:59;;;;;;;6.55;3.90;;;8.50;52.30;;;;;;5054974;28;20111;-81
2021/03/20 08:56:54;;;;;;;5.82;3.10;;;8.60;51.40;;;;;;5073144;28;20449;-81
2021/03/20 08:59:27;;;;;;;9.13;3.67;;;8.70;51.50;;;;;;5042078;28;20028;-81
2021/03/20 09:01:57;;;;;;;6.93;3.80;;;8.80;52.10;;;;;;5055298;28;20021;-80
2021/03/20 09:04:33;;;;;;;5.60;3.10;;;8.90;51.20;;;;;;5055109;28;20439;-80
2021/03/20 09:07:11;;;;;;;7.38;2.47;;;9.00;48.50;;;;;;5054883;28;20044;-80
2021/03/20 09:09:43;;;;;;;14.70;4.57;;;9.10;58.00;;;;;;5051408;28;20033;-81
2021/03/20 09:12:27;;;;;;;13.63;4.38;;;9.30;52.70;;;;;;5051556;28;20029;-80
2021/03/20 09:14:53;;;;;;;7.43;3.90;;;9.50;47.70;;;;;;5051813;28;20381;-80
2021/03/20 09:17:36;;;;;;;9.02;5.00;;;9.70;49.40;;;;;;5053126;28;20013;-80
2021/03/20 09:20:11;;;;;;;7.35;3.67;;;9.90;47.80;;;;;;5052438;28;20028;-79
2021/03/20 09:22:44;;;;;;;5.82;3.03;;;10.20;47.90;;;;;;5052608;28;20021;-78
2021/03/20 09:25:40;;;;;;;7.00;3.90;;;10.30;45.70;;;;;;5051052;28;20052;-79
2021/03/20 09:28:27;;;;;;;6.03;3.70;;;10.50;45.00;;;;;;5049376;28;20122;-81
2021/03/20 09:30:57;;;;;;;6.82;3.42;;;10.60;46.10;;;;;;5050856;28;20025;-80
2021/03/20 09:33:25;;;;;;;5.93;3.65;;;10.70;45.50;;;;;;5052379;28;20107;-80
2021/03/20 09:35:54;;;;;;;4.60;2.75;;;10.70;44.00;;;;;;5054055;28;20069;-81
2021/03/20 09:38:35;;;;;;;5.43;3.13;;;10.70;43.70;;;;;;5056539;28;20521;-80
2021/03/20 09:41:01;;;;;;;5.25;3.10;;;10.80;44.80;;;;;;5051991;28;20057;-83
2021/03/20 09:43:43;;;;;;;6.53;2.58;;;10.80;44.30;;;;;;5052319;28;20131;-82
2021/03/20 09:46:36;;;;;;;5.20;2.17;;;10.90;46.60;;;;;;5052568;28;20391;-82
2021/03/20 09:49:22;;;;;;;6.38;2.58;;;10.90;44.70;;;;;;5054756;28;20032;-81
2021/03/20 09:51:54;;;;;;;3.38;1.70;;;11.00;46.50;;;;;;5043448;28;20061;-81
2021/03/20 09:57:11;;;;;;;6.45;3.58;;;11.40;43.90;;;;;;5068013;28;20044;-82
2021/03/20 09:59:37;;;;;;;6.88;3.55;;;11.50;44.00;;;;;;5035703;28;20021;-82
2021/03/20 10:02:08;;;;;;;6.13;3.70;;;11.60;44.80;;;;;;5053022;28;20510;-83
2021/03/20 10:04:36;;;;;;;6.13;3.60;;;11.60;43.90;;;;;;5053056;28;20025;-83
2021/03/20 10:07:12;;;;;;;6.72;3.80;;;11.60;44.40;;;;;;5053300;28;20043;-83
2021/03/20 10:10:01;;;;;;;8.40;3.72;;;11.70;44.30;;;;;;5052695;28;20041;-83
2021/03/20 10:12:46;;;;;;;6.18;3.28;;;11.50;42.60;;;;;;5045988;28;20098;-83
2021/03/20 10:15:15;;;;;;;8.93;3.63;;;11.40;43.40;;;;;;5052558;28;20071;-84
2021/03/20 10:18:09;;;;;;;6.85;3.63;;;11.30;44.20;;;;;;5053786;28;20402;-84
2021/03/20 10:20:55;;;;;;;8.10;3.50;;;11.50;47.10;;;;;;5054871;28;20025;-84
2021/03/20 10:23:54;;;;;;;6.00;3.35;;;11.80;44.50;;;;;;5052678;28;20108;-84
2021/03/20 10:26:34;;;;;;;5.03;2.63;;;12.00;44.00;;;;;;5053317;28;20025;-84
2021/03/20 10:29:26;;;;;;;4.25;1.77;;;12.20;60.60;;;;;;5051912;28;20017;-83
2021/03/20 10:31:54;;;;;;;6.72;1.63;;;12.50;74.30;;;;;;5042470;28;20588;-83
2021/03/20 10:34:25;;;;;;;6.38;3.22;;;12.60;74.50;;;;;;5056525;28;20330;-80
2021/03/20 10:37:09;;;;;;;6.28;2.25;;;12.80;65.70;;;;;;5077682;28;20035;-80
2021/03/20 10:39:44;;;;;;;3.92;2.25;;;13.10;67.30;;;;;;5083138;28;20062;-81
2021/03/20 10:42:29;;;;;;;4.72;1.88;;;13.50;67.50;;;;;;5079579;28;20013;-80
2021/03/20 10:44:59;;;;;;;4.65;2.30;;;13.80;66.40;;;;;;5074165;28;20017;-80
2021/03/20 10:47:32;;;;;;;5.10;2.25;;;14.00;66.80;;;;;;5075310;28;20012;-81
2021/03/20 10:50:27;;;;;;;4.63;2.33;;;14.10;62.20;;;;;;5076714;28;20042;-81
2021/03/20 10:52:58;;;;;;;3.90;1.88;;;14.30;62.50;;;;;;5086236;28;20468;-80
2021/03/20 10:55:43;;;;;;;4.60;2.30;;;14.30;62.00;;;;;;5083400;28;20073;-81
2021/03/20 10:58:15;;;;;;;4.30;2.13;;;14.40;58.90;;;;;;5076426;28;20031;-81
2021/03/20 11:00:48;;;;;;;4.30;2.30;;;14.50;56.90;;;;;;5076475;28;20103;-80
2021/03/20 11:03:14;;;;;;;3.90;2.15;;;14.60;56.00;;;;;;5075635;28;20522;-80
2021/03/20 11:05:42;;;;;;;2.95;1.80;;;14.70;55.40;;;;;;5079214;28;20025;-81
2021/03/20 11:08:27;;;;;;;2.25;1.48;;;14.70;56.60;;;;;;5084331;28;20032;-78
2021/03/20 11:11:32;;;;;;;4.07;1.80;;;14.70;62.90;;;;;;5076642;28;20020;-78
2021/03/20 11:14:05;;;;;;;6.43;1.98;;;14.70;64.50;;;;;;4993093;28;20014;-78
2021/03/20 11:16:32;;;;;;;4.78;3.00;;;14.60;66.50;;;;;;5064318;28;20024;-78
2021/03/20 11:19:10;;;;;;;4.90;2.35;;;14.60;61.60;;;;;;5076397;28;20024;-79
2021/03/20 11:21:45;;;;;;;5.25;2.42;;;14.50;64.60;;;;;;5076885;28;20019;-78
2021/03/20 11:24:28;;;;;;;5.13;2.80;;;14.10;64.60;;;;;;5094541;28;20479;-79
2021/03/20 11:26:55;;;;;;;4.47;2.10;;;14.20;62.40;;;;;;5076318;28;20498;-78
2021/03/20 11:29:26;;;;;;;4.80;2.50;;;14.30;69.40;;;;;;5076582;28;20405;-78
2021/03/20 11:31:58;;;;;;;4.32;2.28;;;14.30;63.10;;;;;;5093833;28;20469;-80
2021/03/20 11:34:32;;;;;;;3.90;2.25;;;14.30;67.00;;;;;;5094340;28;20055;-78
2021/03/20 11:37:00;;;;;;;4.60;2.38;;;14.40;62.70;;;;;;5094016;28;20028;-79
2021/03/20 11:39:27;;;;;;;4.90;1.95;;;14.40;57.90;;;;;;5076389;28;20093;-78
2021/03/20 11:42:09;;;;;;;4.80;3.05;;;14.40;60.30;;;;;;5075846;28;20131;-78
2021/03/20 11:44:42;;;;;;;5.47;2.70;;;14.30;56.60;;;;;;5075712;28;20028;-78
2021/03/20 11:47:28;;;;;;;5.43;2.70;;;14.00;56.90;;;;;;5075593;28;20220;-78
2021/03/20 11:49:57;;;;;;;5.45;2.50;;;13.80;53.00;;;;;;5093521;28;20020;-78
2021/03/20 11:52:30;;;;;;;5.07;2.92;;;13.90;54.10;;;;;;5093219;28;20038;-78
2021/03/20 11:55:14;;;;;;;5.45;2.90;;;14.00;58.70;;;;;;5093903;28;20016;-78
2021/03/20 11:57:41;;;;;;;5.25;2.92;;;14.10;53.80;;;;;;5075790;28;20020;-79
2021/03/20 12:00:30;;;;;;;4.45;2.50;;;13.90;56.30;;;;;;5093902;28;20024;-79
2021/03/20 12:02:57;;;;;;;5.43;2.80;;;13.80;53.80;;;;;;5093879;28;20016;-79
2021/03/20 12:05:25;;;;;;;5.50;3.35;;;14.00;49.50;;;;;;5093665;28;20372;-79
2021/03/20 12:07:51;;;;;;;5.55;3.33;;;14.10;54.50;;;;;;5093898;28;20055;-78
2021/03/20 12:10:23;;;;;;;4.60;2.58;;;14.00;53.10;;;;;;5075582;28;20036;-78
2021/03/20 12:12:55;;;;;;;6.45;2.10;;;14.00;53.80;;;;;;5093802;28;20023;-77
2021/03/20 12:15:24;;;;;;;3.55;1.92;;;14.00;54.80;;;;;;5074367;28;20304;-78
2021/03/20 12:17:51;;;;;;;4.47;2.35;;;14.10;59.80;;;;;;5074062;28;20456;-78
2021/03/20 12:20:25;;;;;;;3.22;1.73;;;14.20;55.20;;;;;;5093872;28;20024;-78
2021/03/20 12:22:52;;;;;;;4.18;2.30;;;14.20;69.80;;;;;;5093682;28;20016;-79
2021/03/20 12:25:27;;;;;;;5.28;2.90;;;14.30;70.00;;;;;;5075219;28;20027;-79
2021/03/20 12:28:14;;;;;;;5.65;2.80;;;14.30;61.40;;;;;;5093502;28;20016;-77
2021/03/20 12:30:39;;;;;;;5.10;2.88;;;14.40;64.50;;;;;;5075086;28;20068;-79
2021/03/20 12:33:11;;;;;;;6.70;2.80;;;14.70;59.00;;;;;;5092802;28;20105;-80
2021/03/20 12:35:41;;;;;;;4.00;2.40;;;15.00;62.60;;;;;;5073853;28;20023;-79
2021/03/20 12:38:16;;;;;;;2.80;1.60;;;15.20;62.90;;;;;;5091319;28;20024;-79
2021/03/20 12:40:54;;;;;;;5.65;2.85;;;15.10;62.80;;;;;;5072233;28;20027;-79
2021/03/20 12:43:37;;;;;;;4.20;2.38;;;15.20;61.90;;;;;;5072412;28;20016;-79
2021/03/20 12:46:08;;;;;;;4.88;2.50;;;15.20;62.00;;;;;;5092398;28;20048;-80
2021/03/20 12:48:38;;;;;;;4.28;2.25;;;15.10;59.60;;;;;;5074489;28;20042;-79
2021/03/20 12:51:16;;;;;;;6.93;4.45;;;15.30;59.50;;;;;;5074602;28;20024;-80
2021/03/20 12:53:42;;;;;;;5.00;3.42;;;15.40;42.90;;;;;;5092826;28;20016;-80
2021/03/20 12:56:07;;;;;;;7.93;4.18;;;15.00;42.20;;;;;;5074458;28;20227;-80
2021/03/20 12:58:33;;;;;;;8.75;4.10;;;14.90;40.60;;;;;;5074625;28;20394;-80
2021/03/20 13:00:59;;;;;;;6.28;3.83;;;14.90;41.70;;;;;;5092644;28;20160;-81
2021/03/20 13:03:24;;;;;;;8.05;4.15;;;14.80;40.00;;;;;;5074171;28;20039;-80
2021/03/20 13:05:51;;;;;;;6.32;3.88;;;14.70;42.00;;;;;;5092990;28;20020;-81
2021/03/20 13:08:17;;;;;;;8.32;4.18;;;14.30;39.90;;;;;;5074093;28;20044;-80
2021/03/20 13:10:42;;;;;;;7.03;4.22;;;14.20;45.40;;;;;;5075079;28;20039;-81
2021/03/20 13:13:09;;;;;;;6.78;3.30;;;14.20;45.00;;;;;;5092728;28;20020;-81
2021/03/20 13:15:34;;;;;;;6.93;3.55;;;14.20;39.10;;;;;;5074745;28;20039;-81
2021/03/20 13:18:00;;;;;;;6.10;3.22;;;14.00;39.90;;;;;;5074402;28;20039;-81
2021/03/20 13:20:27;;;;;;;6.00;3.38;;;14.00;43.20;;;;;;5093034;28;20062;-81
2021/03/20 13:22:53;;;;;;;6.38;3.63;;;13.90;39.70;;;;;;5092534;28;20098;-80
2021/03/20 13:25:32;;;;;;;5.20;2.75;;;14.20;38.90;;;;;;5074775;28;20419;-80
2021/03/20 13:27:57;;;;;;;5.93;2.88;;;14.20;44.10;;;;;;5082158;28;20071;-81
2021/03/20 13:30:26;;;;;;;5.38;3.50;;;14.10;40.70;;;;;;5086112;28;20024;-80
2021/03/20 13:32:53;;;;;;;6.43;3.75;;;14.20;40.70;;;;;;5082054;28;20444;-81
2021/03/20 13:35:21;;;;;;;7.30;3.30;;;14.30;38.30;;;;;;5092580;28;20016;-81
2021/03/20 13:37:47;;;;;;;6.07;3.65;;;14.50;38.70;;;;;;5074776;28;20012;-81
2021/03/20 13:40:14;;;;;;;6.07;3.97;;;14.80;41.20;;;;;;5075502;28;20115;-81